createdAt,value
2023-04-28T00:00:26.260Z,4.63
2023-04-28T00:02:28.527Z,4.18
2023-04-28T00:04:31.002Z,3.58
2023-04-28T00:08:35.722Z,4.18
2023-04-28T00:10:37.932Z,3.63
2023-04-28T00:12:40.199Z,3.42
2023-04-28T00:14:42.360Z,3.47
2023-04-28T00:16:44.732Z,3.92
2023-04-28T00:18:47.269Z,3.38
2023-04-28T00:20:50.293Z,3.80
2023-04-28T00:22:52.435Z,3.10
2023-04-28T00:24:54.578Z,3.72
2023-04-28T00:26:57.673Z,3.60
2023-04-28T00:28:59.799Z,3.75
2023-04-28T00:31:02.086Z,3.28
2023-04-28T00:33:04.345Z,3.42
2023-04-28T00:35:07.208Z,3.75
2023-04-28T00:37:09.369Z,3.72
2023-04-28T00:39:11.614Z,3.60
2023-04-28T00:41:14.491Z,3.75
2023-04-28T00:43:16.625Z,3.63
2023-04-28T00:45:18.861Z,3.90
2023-04-28T00:47:21.081Z,3.92
2023-04-28T00:49:23.266Z,3.88
2023-04-28T00:51:27.629Z,3.80
2023-04-28T00:53:29.781Z,4.15
2023-04-28T00:55:33.642Z,4.15
2023-04-28T00:57:36.251Z,3.70
2023-04-28T00:59:38.472Z,3.83
2023-04-28T01:01:41.000Z,3.95
2023-04-28T01:03:43.296Z,3.88
2023-04-28T01:05:45.737Z,4.13
2023-04-28T01:07:48.127Z,3.95
2023-04-28T01:09:50.342Z,3.88
2023-04-28T01:11:52.538Z,3.90
2023-04-28T01:13:54.733Z,3.40
2023-04-28T01:15:57.085Z,3.55
2023-04-28T01:17:59.262Z,3.75
2023-04-28T01:20:01.711Z,3.75
2023-04-28T01:22:04.805Z,3.65
2023-04-28T01:24:07.222Z,3.40
2023-04-28T01:26:09.463Z,3.75
2023-04-28T01:28:13.010Z,3.50
2023-04-28T01:30:15.580Z,3.42
2023-04-28T01:32:17.732Z,3.33
2023-04-28T01:34:20.047Z,2.88
2023-04-28T01:36:23.690Z,3.40
2023-04-28T01:38:25.916Z,3.13
2023-04-28T01:40:28.140Z,3.15
2023-04-28T01:42:30.456Z,3.17
2023-04-28T01:44:32.670Z,3.13
2023-04-28T01:46:35.449Z,3.03
2023-04-28T01:48:37.669Z,3.10
2023-04-28T01:50:39.992Z,3.50
2023-04-28T01:52:42.169Z,3.13
2023-04-28T01:54:44.397Z,3.08
2023-04-28T01:56:46.611Z,2.90
2023-04-28T01:58:48.900Z,2.97
2023-04-28T02:00:51.249Z,3.17
2023-04-28T02:02:53.557Z,3.38
2023-04-28T02:04:56.111Z,2.95
2023-04-28T02:06:58.911Z,3.50
2023-04-28T02:09:01.202Z,2.60
2023-04-28T02:11:04.279Z,2.95
2023-04-28T02:13:06.403Z,2.63
2023-04-28T02:15:09.207Z,3.15
2023-04-28T02:17:11.335Z,2.47
2023-04-28T02:19:13.545Z,2.63
2023-04-28T02:21:16.013Z,3.15
2023-04-28T02:23:18.187Z,2.45
2023-04-28T02:25:20.352Z,2.90
2023-04-28T02:27:22.878Z,3.30
2023-04-28T02:29:25.261Z,2.70
2023-04-28T02:31:27.500Z,2.53
2023-04-28T02:33:29.682Z,2.80
2023-04-28T02:35:31.874Z,2.90
2023-04-28T02:37:34.000Z,2.92
2023-04-28T02:39:36.360Z,2.60
2023-04-28T02:41:38.594Z,2.20
2023-04-28T02:43:40.728Z,2.97
2023-04-28T02:45:42.846Z,2.80
2023-04-28T02:47:45.062Z,2.80
2023-04-28T02:49:47.222Z,2.67
2023-04-28T02:51:49.371Z,2.67
2023-04-28T02:53:51.603Z,3.03
2023-04-28T02:55:54.119Z,2.90
2023-04-28T02:57:56.225Z,2.78
2023-04-28T02:59:58.392Z,2.80
2023-04-28T03:02:00.677Z,2.83
2023-04-28T03:04:03.165Z,2.80
2023-04-28T03:06:05.832Z,2.88
2023-04-28T03:08:08.144Z,2.40
2023-04-28T03:10:10.536Z,3.33
2023-04-28T03:12:13.116Z,2.80
2023-04-28T03:14:15.565Z,3.17
2023-04-28T03:16:17.997Z,2.78
2023-04-28T03:18:20.198Z,2.75
2023-04-28T03:20:22.311Z,3.15
2023-04-28T03:22:24.443Z,2.63
2023-04-28T03:24:26.767Z,2.85
2023-04-28T03:26:28.968Z,2.63
2023-04-28T03:28:31.149Z,2.95
2023-04-28T03:30:33.265Z,2.72
2023-04-28T03:32:35.473Z,3.15
2023-04-28T03:34:37.687Z,2.83
2023-04-28T03:36:39.834Z,2.38
2023-04-28T03:38:42.356Z,2.78
2023-04-28T03:40:44.501Z,2.40
2023-04-28T03:42:46.965Z,2.42
2023-04-28T03:44:49.095Z,2.45
2023-04-28T03:46:51.244Z,2.47
2023-04-28T03:48:53.673Z,2.30
2023-04-28T03:50:55.866Z,2.50
2023-04-28T03:52:57.995Z,2.40
2023-04-28T03:55:00.199Z,2.65
2023-04-28T03:57:02.405Z,2.45
2023-04-28T03:59:04.774Z,2.72
2023-04-28T04:01:06.892Z,2.38
2023-04-28T04:03:09.142Z,2.80
2023-04-28T04:05:11.671Z,3.00
2023-04-28T04:07:14.679Z,2.60
2023-04-28T04:09:16.881Z,2.45
2023-04-28T04:11:19.033Z,2.72
2023-04-28T04:13:21.465Z,3.33
2023-04-28T04:15:23.611Z,3.38
2023-04-28T04:17:25.779Z,3.10
2023-04-28T04:19:28.115Z,3.58
2023-04-28T04:21:31.753Z,3.42
2023-04-28T04:23:33.915Z,3.30
2023-04-28T04:25:36.453Z,3.30
2023-04-28T04:27:38.565Z,2.90
2023-04-28T04:29:40.906Z,3.17
2023-04-28T04:31:45.291Z,3.58
2023-04-28T04:33:47.692Z,3.10
2023-04-28T04:35:49.846Z,3.20
2023-04-28T04:37:52.046Z,2.90
2023-04-28T04:39:54.262Z,3.00
2023-04-28T04:41:56.399Z,3.25
2023-04-28T04:43:58.591Z,3.13
2023-04-28T04:46:00.912Z,2.92
2023-04-28T04:48:03.472Z,2.88
2023-04-28T04:50:06.058Z,2.85
2023-04-28T04:52:08.285Z,2.90
2023-04-28T04:54:10.566Z,2.70
2023-04-28T04:56:12.738Z,2.65
2023-04-28T04:58:14.879Z,2.72
2023-04-28T05:00:17.296Z,2.60
2023-04-28T05:02:19.565Z,2.92
2023-04-28T05:04:22.325Z,3.15
2023-04-28T05:06:25.018Z,2.97
2023-04-28T05:08:27.273Z,2.90
2023-04-28T05:10:29.439Z,2.70
2023-04-28T05:12:31.607Z,2.47
2023-04-28T05:14:33.772Z,2.85
2023-04-28T05:16:36.148Z,2.70
2023-04-28T05:18:38.507Z,2.70
2023-04-28T05:20:40.810Z,2.63
2023-04-28T05:22:43.017Z,3.53
2023-04-28T05:24:45.428Z,3.58
2023-04-28T05:26:47.694Z,3.92
2023-04-28T05:28:50.122Z,3.10
2023-04-28T05:30:52.264Z,3.30
2023-04-28T05:32:54.671Z,3.05
2023-04-28T05:34:56.851Z,3.22
2023-04-28T05:36:58.977Z,3.20
2023-04-28T05:39:01.266Z,3.20
2023-04-28T05:41:03.464Z,3.33
2023-04-28T05:43:05.821Z,3.17
2023-04-28T05:45:08.362Z,3.00
2023-04-28T05:47:10.555Z,3.78
2023-04-28T05:49:12.782Z,3.58
2023-04-28T05:51:14.934Z,4.38
2023-04-28T05:53:17.056Z,5.18
2023-04-28T05:55:19.216Z,4.10
2023-04-28T05:57:21.554Z,3.72
2023-04-28T05:59:23.927Z,4.35
2023-04-28T06:01:26.300Z,4.15
2023-04-28T06:03:28.706Z,3.75
2023-04-28T06:05:31.309Z,3.75
2023-04-28T06:09:35.838Z,3.30
2023-04-28T06:11:38.006Z,3.47
2023-04-28T06:13:40.135Z,3.28
2023-04-28T06:15:42.281Z,3.60
2023-04-28T06:17:44.529Z,3.58
2023-04-28T06:19:46.735Z,3.30
2023-04-28T06:21:50.444Z,3.35
2023-04-28T06:23:52.607Z,3.97
2023-04-28T06:25:54.749Z,6.50
2023-04-28T06:27:57.030Z,9.02
2023-04-28T06:29:59.666Z,5.63
2023-04-28T06:32:01.852Z,4.10
2023-04-28T06:34:04.029Z,3.00
2023-04-28T06:36:06.351Z,2.72
2023-04-28T06:38:08.636Z,2.60
2023-04-28T06:40:11.243Z,2.78
2023-04-28T06:42:13.448Z,2.40
2023-04-28T06:44:16.021Z,2.33
2023-04-28T06:46:18.344Z,2.60
2023-04-28T06:48:20.583Z,2.30
2023-04-28T06:50:23.567Z,2.42
2023-04-28T06:52:36.809Z,2.10
2023-04-28T06:54:41.322Z,2.55
2023-04-28T06:56:43.471Z,2.22
2023-04-28T06:58:45.643Z,2.78
2023-04-28T07:00:47.810Z,2.63
2023-04-28T07:02:50.167Z,2.90
2023-04-28T07:04:52.469Z,2.78
2023-04-28T07:06:54.625Z,2.65
2023-04-28T07:08:56.895Z,2.65
2023-04-28T07:10:59.091Z,2.40
2023-04-28T07:13:01.366Z,2.72
2023-04-28T07:15:03.579Z,2.42
2023-04-28T07:17:05.775Z,2.50
2023-04-28T07:19:07.923Z,2.08
2023-04-28T07:21:10.082Z,2.05
2023-04-28T07:23:12.235Z,2.13
2023-04-28T07:25:14.418Z,2.15
2023-04-28T07:27:17.324Z,3.08
2023-04-28T07:29:19.557Z,2.30
2023-04-28T07:31:21.912Z,2.47
2023-04-28T07:33:24.286Z,2.25
2023-04-28T07:35:26.590Z,2.17
2023-04-28T07:37:29.408Z,2.10
2023-04-28T07:39:34.010Z,2.10
2023-04-28T07:41:39.341Z,2.00
2023-04-28T07:43:41.589Z,2.45
2023-04-28T07:45:45.967Z,2.13
2023-04-28T07:47:48.294Z,1.85
2023-04-28T07:49:50.521Z,2.30
2023-04-28T07:51:54.901Z,2.28
2023-04-28T07:53:57.287Z,1.80
2023-04-28T07:56:00.113Z,1.90
2023-04-28T07:58:02.270Z,1.52
2023-04-28T08:00:05.568Z,1.80
2023-04-28T08:02:08.101Z,1.52
2023-04-28T08:04:11.724Z,1.92
2023-04-28T08:06:14.234Z,2.00
2023-04-28T08:08:16.360Z,1.85
2023-04-28T08:10:18.576Z,1.77
2023-04-28T08:12:20.764Z,1.70
2023-04-28T08:14:22.966Z,2.00
2023-04-28T08:16:25.625Z,2.22
2023-04-28T08:18:28.123Z,2.35
2023-04-28T08:20:32.464Z,2.15
2023-04-28T08:22:34.626Z,2.25
2023-04-28T08:24:36.825Z,1.73
2023-04-28T08:26:39.156Z,2.65
2023-04-28T08:28:41.305Z,1.92
2023-04-28T08:30:43.506Z,2.10
2023-04-28T08:32:46.221Z,2.35
2023-04-28T08:36:52.836Z,2.00
2023-04-28T08:38:55.285Z,1.80
2023-04-28T08:40:57.534Z,1.98
2023-04-28T08:43:00.838Z,2.00
2023-04-28T08:45:03.611Z,1.70
2023-04-28T08:49:08.944Z,2.13
2023-04-28T08:51:14.702Z,2.13
2023-04-28T08:53:19.805Z,2.20
2023-04-28T08:55:22.343Z,2.50
2023-04-28T08:57:25.527Z,2.40
2023-04-28T08:59:28.046Z,2.65
2023-04-28T09:01:30.312Z,2.63
2023-04-28T09:03:33.454Z,2.35
2023-04-28T09:05:37.267Z,2.40
2023-04-28T09:07:39.943Z,2.67
2023-04-28T09:09:42.190Z,2.45
2023-04-28T09:11:55.613Z,2.20
2023-04-28T09:14:12.532Z,2.00
2023-04-28T09:16:15.125Z,1.88
2023-04-28T09:18:17.343Z,1.90
2023-04-28T09:20:24.301Z,1.90
2023-04-28T09:22:29.587Z,1.60
2023-04-28T09:24:32.646Z,2.00
2023-04-28T09:26:55.429Z,1.75
2023-04-28T09:29:13.017Z,1.60
2023-04-28T09:31:25.376Z,1.73
2023-04-28T09:33:27.837Z,1.58
2023-04-28T09:35:43.401Z,2.10
2023-04-28T09:37:45.703Z,2.05
2023-04-28T09:39:49.566Z,1.95
2023-04-28T09:41:51.846Z,2.10
2023-04-28T09:43:54.050Z,2.03
2023-04-28T09:45:57.381Z,1.65
2023-04-28T09:48:11.157Z,1.70
2023-04-28T09:50:17.734Z,1.50
2023-04-28T09:52:20.162Z,1.83
2023-04-28T09:54:23.538Z,1.42
2023-04-28T09:56:28.566Z,2.13
2023-04-28T09:58:32.953Z,1.48
2023-04-28T10:00:35.977Z,1.58
2023-04-28T10:02:43.158Z,1.83
2023-04-28T10:04:46.272Z,1.52
2023-04-28T10:08:52.040Z,1.95
2023-04-28T10:10:54.901Z,1.73
2023-04-28T10:12:57.965Z,1.52
2023-04-28T10:15:01.053Z,1.80
2023-04-28T10:17:05.466Z,1.80
2023-04-28T10:19:08.913Z,2.17
2023-04-28T10:21:12.697Z,1.83
2023-04-28T10:23:17.911Z,1.80
2023-04-28T10:25:31.128Z,1.48
2023-04-28T10:27:35.709Z,1.85
2023-04-28T10:29:38.147Z,1.55
2023-04-28T10:31:40.405Z,2.28
2023-04-28T10:33:43.351Z,1.95
2023-04-28T10:35:46.314Z,2.35
2023-04-28T10:38:05.673Z,1.90
2023-04-28T10:40:40.255Z,1.80
2023-04-28T10:42:56.256Z,1.67
2023-04-28T10:44:58.599Z,1.70
2023-04-28T10:47:03.956Z,1.80
2023-04-28T10:49:06.352Z,1.98
2023-04-28T10:51:09.832Z,1.77
2023-04-28T10:53:12.249Z,1.58
2023-04-28T10:55:34.857Z,1.73
2023-04-28T10:57:37.415Z,1.92
2023-04-28T10:59:39.643Z,1.60
2023-04-28T11:01:42.549Z,1.50
2023-04-28T11:03:44.807Z,1.52
2023-04-28T11:06:05.543Z,1.63
2023-04-28T11:08:26.287Z,1.50
2023-04-28T11:10:48.429Z,1.58
2023-04-28T11:13:10.963Z,1.08
2023-04-28T11:15:13.416Z,1.05
2023-04-28T11:17:18.661Z,1.00
2023-04-28T11:19:22.181Z,1.00
2023-04-28T11:21:25.267Z,1.02
2023-04-28T11:23:29.951Z,1.30
2023-04-28T11:25:52.274Z,1.10
2023-04-28T11:27:54.421Z,0.82
2023-04-28T11:29:57.817Z,1.02
2023-04-28T11:32:00.563Z,1.10
2023-04-28T11:34:14.320Z,1.13
2023-04-28T11:36:25.739Z,1.30
2023-04-28T11:38:27.910Z,1.33
2023-04-28T11:40:30.086Z,2.03
2023-04-28T11:42:34.015Z,1.60
2023-04-28T11:44:36.299Z,1.88
2023-04-28T11:46:45.191Z,1.10
2023-04-28T11:48:47.975Z,0.98
2023-04-28T11:52:53.713Z,1.00
2023-04-28T11:55:02.077Z,0.90
2023-04-28T11:57:05.032Z,1.00
2023-04-28T12:01:11.249Z,1.00
2023-04-28T12:03:13.604Z,0.98
2023-04-28T12:05:15.973Z,1.02
2023-04-28T12:07:19.678Z,1.10
2023-04-28T12:09:24.989Z,1.30
2023-04-28T12:11:27.120Z,0.93
2023-04-28T12:13:29.558Z,1.00
2023-04-28T12:15:41.443Z,0.95
2023-04-28T12:17:44.518Z,1.08
2023-04-28T12:19:46.716Z,1.67
2023-04-28T12:22:02.119Z,0.90
2023-04-28T12:24:20.585Z,0.88
2023-04-28T12:26:26.183Z,0.90
2023-04-28T12:28:38.315Z,0.80
2023-04-28T12:30:42.664Z,1.13
2023-04-28T12:32:45.044Z,1.27
2023-04-28T12:34:47.297Z,0.80
2023-04-28T12:36:49.520Z,0.88
2023-04-28T12:38:51.714Z,1.10
2023-04-28T12:40:54.180Z,0.70
2023-04-28T12:42:56.937Z,0.90
2023-04-28T12:47:02.288Z,0.90
2023-04-28T12:49:04.428Z,0.70
2023-04-28T12:51:06.764Z,1.05
2023-04-28T12:53:09.277Z,1.08
2023-04-28T12:55:11.572Z,0.90
2023-04-28T12:57:14.146Z,0.70
2023-04-28T12:59:16.468Z,0.75
2023-04-28T13:01:18.688Z,0.80
2023-04-28T13:03:21.524Z,0.85
2023-04-28T13:05:24.208Z,0.80
2023-04-28T13:07:26.385Z,0.80
2023-04-28T13:09:28.632Z,1.02
2023-04-28T13:11:32.039Z,0.80
2023-04-28T13:13:34.173Z,0.82
2023-04-28T13:15:38.748Z,1.00
2023-04-28T13:17:41.187Z,0.90
2023-04-28T13:19:43.877Z,0.77
2023-04-28T13:23:49.553Z,0.60
2023-04-28T13:25:51.937Z,0.60
2023-04-28T13:27:54.183Z,0.80
2023-04-28T13:29:59.070Z,0.80
2023-04-28T13:32:01.438Z,0.70
2023-04-28T13:34:05.294Z,0.90
2023-04-28T13:36:08.452Z,0.90
2023-04-28T13:38:10.631Z,0.77
2023-04-28T13:40:12.937Z,0.70
2023-04-28T13:42:16.133Z,0.70
2023-04-28T13:44:18.532Z,0.63
2023-04-28T13:46:21.205Z,0.57
2023-04-28T13:50:25.786Z,0.60
2023-04-28T13:52:27.942Z,0.50
2023-04-28T13:54:30.070Z,0.80
2023-04-28T13:56:32.497Z,0.60
2023-04-28T13:58:34.809Z,0.70
2023-04-28T14:00:37.771Z,0.70
2023-04-28T14:02:40.120Z,0.65
2023-04-28T14:04:48.623Z,0.50
2023-04-28T14:06:52.010Z,0.60
2023-04-28T14:08:54.224Z,0.60
2023-04-28T14:10:56.392Z,0.60
2023-04-28T14:12:58.553Z,0.52
2023-04-28T14:15:00.792Z,0.55
2023-04-28T14:17:03.820Z,0.50
2023-04-28T14:19:07.329Z,0.50
2023-04-28T14:21:09.536Z,0.50
2023-04-28T14:23:12.231Z,0.50
2023-04-28T14:27:16.510Z,0.60
2023-04-28T14:29:18.683Z,0.60
2023-04-28T14:31:20.896Z,0.50
2023-04-28T14:33:23.214Z,0.70
2023-04-28T14:35:25.659Z,0.60
2023-04-28T14:37:27.974Z,0.80
2023-04-28T14:39:30.084Z,0.57
2023-04-28T14:41:32.242Z,0.77
2023-04-28T14:43:34.561Z,0.82
2023-04-28T14:45:38.180Z,0.80
2023-04-28T14:47:41.288Z,0.77
2023-04-28T14:49:43.505Z,0.60
2023-04-28T14:51:46.620Z,0.57
2023-04-28T14:53:49.212Z,0.60
2023-04-28T14:55:51.674Z,0.80
2023-04-28T14:57:54.626Z,0.70
2023-04-28T14:59:57.207Z,0.60
2023-04-28T15:01:59.573Z,0.60
2023-04-28T15:04:02.201Z,0.73
2023-04-28T15:08:07.299Z,0.60
2023-04-28T15:10:09.622Z,0.68
2023-04-28T15:12:11.772Z,0.75
2023-04-28T15:14:14.040Z,0.70
2023-04-28T15:16:16.407Z,0.75
2023-04-28T15:18:18.664Z,0.70
2023-04-28T15:20:20.850Z,0.68
2023-04-28T15:22:23.172Z,1.02
2023-04-28T15:24:25.533Z,0.60
2023-04-28T15:26:29.978Z,0.80
2023-04-28T15:28:32.330Z,0.70
2023-04-28T15:30:34.702Z,0.70
2023-04-28T15:32:37.109Z,0.65
2023-04-28T15:34:39.635Z,0.65
2023-04-28T15:36:42.470Z,0.88
2023-04-28T15:40:47.852Z,0.70
2023-04-28T15:42:51.771Z,0.80
2023-04-28T15:44:54.593Z,0.70
2023-04-28T15:46:57.085Z,0.80
2023-04-28T15:48:59.956Z,0.90
2023-04-28T15:51:02.160Z,1.10
2023-04-28T15:53:04.303Z,0.95
2023-04-28T15:55:06.971Z,1.23
2023-04-28T15:59:15.938Z,0.80
2023-04-28T16:01:18.678Z,1.08
2023-04-28T16:05:23.291Z,1.10
2023-04-28T16:07:25.412Z,1.30
2023-04-28T16:09:27.601Z,1.02
2023-04-28T16:11:30.303Z,1.00
2023-04-28T16:15:35.220Z,1.13
2023-04-28T16:17:41.650Z,0.95
2023-04-28T16:19:44.758Z,1.00
2023-04-28T16:21:46.886Z,1.30
2023-04-28T16:23:51.051Z,1.05
2023-04-28T16:25:54.078Z,1.13
2023-04-28T16:27:56.565Z,1.20
2023-04-28T16:29:59.069Z,1.20
2023-04-28T16:32:01.380Z,1.20
2023-04-28T16:34:03.836Z,1.02
2023-04-28T16:36:06.111Z,1.48
2023-04-28T16:38:09.070Z,1.42
2023-04-28T16:40:12.043Z,1.60
2023-04-28T16:42:14.291Z,1.77
2023-04-28T16:44:16.738Z,1.75
2023-04-28T16:46:19.027Z,1.80
2023-04-28T16:48:21.588Z,2.28
2023-04-28T16:50:23.765Z,1.65
2023-04-28T16:52:27.370Z,1.58
2023-04-28T16:54:29.808Z,2.15
2023-04-28T16:56:34.026Z,2.53
2023-04-28T16:58:36.519Z,2.63
2023-04-28T17:00:38.688Z,2.25
2023-04-28T17:02:41.071Z,2.53
2023-04-28T17:04:43.506Z,2.40
2023-04-28T17:06:46.455Z,2.22
2023-04-28T17:08:48.628Z,2.38
2023-04-28T17:10:50.792Z,2.35
2023-04-28T17:12:53.314Z,2.58
2023-04-28T17:14:55.593Z,2.75
2023-04-28T17:16:57.787Z,2.30
2023-04-28T17:19:00.321Z,2.22
2023-04-28T17:21:02.551Z,3.65
2023-04-28T17:23:04.671Z,4.00
2023-04-28T17:25:07.023Z,4.38
2023-04-28T17:27:09.754Z,5.47
2023-04-28T17:31:14.575Z,3.47
2023-04-28T17:33:17.442Z,2.50
2023-04-28T17:35:19.690Z,2.22
2023-04-28T17:37:21.912Z,1.95
2023-04-28T17:39:24.151Z,3.20
2023-04-28T17:41:26.536Z,2.60
2023-04-28T17:43:29.510Z,2.28
2023-04-28T17:45:31.817Z,1.95
2023-04-28T17:47:34.239Z,2.30
2023-04-28T17:49:36.708Z,2.60
2023-04-28T17:51:38.977Z,2.55
2023-04-28T17:53:42.507Z,2.08
2023-04-28T17:55:44.837Z,2.35
2023-04-28T17:57:46.979Z,5.35
2023-04-28T17:59:52.013Z,5.38
2023-04-28T18:01:56.373Z,3.85
2023-04-28T18:03:58.999Z,3.03
2023-04-28T18:06:01.471Z,3.03
2023-04-28T18:08:04.240Z,3.45
2023-04-28T18:12:10.006Z,3.72
2023-04-28T18:14:12.244Z,2.60
2023-04-28T18:16:15.153Z,3.30
2023-04-28T18:18:17.423Z,3.60
2023-04-28T18:20:19.722Z,3.50
2023-04-28T18:22:22.210Z,3.28
2023-04-28T18:24:24.982Z,3.70
2023-04-28T18:28:29.228Z,3.90
2023-04-28T18:30:40.660Z,6.28
2023-04-28T18:32:42.890Z,9.45
2023-04-28T18:34:45.156Z,7.95
2023-04-28T18:36:47.260Z,6.60
2023-04-28T18:38:49.631Z,4.40
2023-04-28T18:40:51.782Z,2.85
2023-04-28T18:42:53.951Z,2.95
2023-04-28T18:44:57.818Z,6.22
2023-04-28T18:47:00.015Z,3.83
2023-04-28T18:49:03.552Z,3.92
2023-04-28T18:51:05.788Z,3.95
2023-04-28T18:53:10.328Z,4.93
2023-04-28T18:55:12.693Z,4.45
2023-04-28T18:57:14.933Z,4.00
2023-04-28T18:59:17.105Z,2.85
2023-04-28T19:01:19.864Z,3.10
2023-04-28T19:05:24.639Z,4.67
2023-04-28T19:07:26.993Z,5.53
2023-04-28T19:09:29.176Z,4.40
2023-04-28T19:11:31.493Z,3.40
2023-04-28T19:13:44.752Z,3.58
2023-04-28T19:15:47.137Z,3.13
2023-04-28T19:17:49.652Z,2.40
2023-04-28T19:19:55.499Z,2.55
2023-04-28T19:21:57.717Z,3.00
2023-04-28T19:23:59.864Z,2.75
2023-04-28T19:26:02.177Z,2.45
2023-04-28T19:28:05.110Z,2.88
2023-04-28T19:30:10.168Z,3.30
2023-04-28T19:32:12.587Z,2.90
2023-04-28T19:34:14.806Z,2.63
2023-04-28T19:36:17.794Z,2.38
2023-04-28T19:38:20.003Z,2.13
2023-04-28T19:40:22.342Z,2.20
2023-04-28T19:42:24.567Z,1.90
2023-04-28T19:44:27.822Z,1.92
2023-04-28T19:46:30.058Z,2.47
2023-04-28T19:48:32.676Z,1.88
2023-04-28T19:50:36.164Z,2.30
2023-04-28T19:52:38.374Z,2.15
2023-04-28T19:54:41.503Z,2.17
2023-04-28T19:56:43.907Z,2.90
2023-04-28T19:58:46.190Z,3.10
2023-04-28T20:00:48.634Z,2.75
2023-04-28T20:02:51.060Z,2.65
2023-04-28T20:04:53.596Z,2.35
2023-04-28T20:06:55.869Z,2.00
2023-04-28T20:08:58.093Z,2.20
2023-04-28T20:11:00.290Z,2.30
2023-04-28T20:13:02.812Z,2.45
2023-04-28T20:15:05.240Z,2.42
2023-04-28T20:17:09.582Z,3.22
2023-04-28T20:19:11.844Z,3.13
2023-04-28T20:21:14.152Z,3.45
2023-04-28T20:23:16.444Z,3.50
2023-04-28T20:25:18.829Z,3.90
2023-04-28T20:27:21.990Z,3.03
2023-04-28T20:29:24.292Z,3.33
2023-04-28T20:31:26.647Z,3.45
2023-04-28T20:33:29.213Z,3.53
2023-04-28T20:35:31.380Z,3.35
2023-04-28T20:37:33.681Z,2.60
2023-04-28T20:39:35.878Z,2.60
2023-04-28T20:41:41.002Z,2.10
2023-04-28T20:43:43.348Z,2.05
2023-04-28T20:45:46.113Z,2.30
2023-04-28T20:49:50.703Z,1.85
2023-04-28T20:51:53.182Z,1.80
2023-04-28T20:53:56.260Z,1.80
2023-04-28T20:55:58.417Z,1.77
2023-04-28T20:58:00.803Z,1.90
2023-04-28T21:00:04.554Z,1.70
2023-04-28T21:02:07.572Z,1.75
2023-04-28T21:04:10.892Z,1.92
2023-04-28T21:06:13.126Z,1.30
2023-04-28T21:08:15.428Z,1.45
2023-04-28T21:10:17.589Z,1.50
2023-04-28T21:12:19.855Z,1.17
2023-04-28T21:14:22.189Z,1.27
2023-04-28T21:16:24.389Z,1.33
2023-04-28T21:18:26.589Z,1.40
2023-04-28T21:20:28.767Z,1.38
2023-04-28T21:22:31.038Z,1.40
2023-04-28T21:24:33.198Z,1.65
2023-04-28T21:26:36.395Z,1.35
2023-04-28T21:28:40.049Z,1.58
2023-04-28T21:30:42.467Z,1.30
2023-04-28T21:32:44.648Z,1.30
2023-04-28T21:34:49.981Z,1.17
2023-04-28T21:36:52.753Z,1.10
2023-04-28T21:40:57.082Z,1.00
2023-04-28T21:42:59.425Z,1.50
2023-04-28T21:45:02.021Z,1.20
2023-04-28T21:47:04.178Z,1.10
2023-04-28T21:49:06.722Z,1.10
2023-04-28T21:51:09.101Z,0.80
2023-04-28T21:53:11.403Z,1.08
2023-04-28T21:55:13.629Z,0.82
2023-04-28T21:57:15.861Z,1.00
2023-04-28T21:59:18.300Z,1.05
2023-04-28T22:01:21.001Z,1.02
2023-04-28T22:03:23.575Z,1.10
2023-04-28T22:07:29.909Z,0.70
2023-04-28T22:09:33.213Z,0.88
2023-04-28T22:11:36.090Z,0.95
2023-04-28T22:13:38.743Z,1.00
2023-04-28T22:17:44.323Z,0.90
2023-04-28T22:19:46.640Z,1.33
2023-04-28T22:21:48.883Z,0.88
2023-04-28T22:23:51.063Z,0.95
2023-04-28T22:25:53.272Z,0.70
2023-04-28T22:27:55.457Z,1.05
2023-04-28T22:29:58.780Z,0.93
2023-04-28T22:32:02.629Z,0.98
2023-04-28T22:34:09.739Z,0.80
2023-04-28T22:36:12.049Z,0.80
2023-04-28T22:38:14.198Z,1.17
2023-04-28T22:40:16.335Z,0.93
2023-04-28T22:42:18.678Z,0.70
2023-04-28T22:44:20.941Z,1.08
2023-04-28T22:46:23.236Z,0.93
2023-04-28T22:48:25.424Z,0.90
2023-04-28T22:50:29.022Z,0.52
2023-04-28T22:52:31.694Z,0.90
2023-04-28T22:54:34.439Z,0.82
2023-04-28T22:58:39.143Z,1.08
2023-04-28T23:00:41.495Z,0.98
2023-04-28T23:02:45.014Z,0.70
2023-04-28T23:04:47.387Z,0.70
2023-04-28T23:06:49.652Z,0.80
2023-04-28T23:08:51.789Z,0.88
2023-04-28T23:10:56.548Z,0.90
2023-04-28T23:12:58.686Z,0.70
2023-04-28T23:15:00.990Z,0.70
2023-04-28T23:17:03.227Z,0.80
2023-04-28T23:19:05.648Z,0.70
2023-04-28T23:21:08.143Z,0.75
2023-04-28T23:23:10.332Z,0.77
2023-04-28T23:25:12.491Z,0.70
2023-04-28T23:27:14.679Z,0.93
2023-04-28T23:29:17.327Z,0.80
2023-04-28T23:31:19.639Z,0.73
2023-04-28T23:33:21.921Z,0.85
2023-04-28T23:35:24.052Z,0.60
2023-04-28T23:37:26.404Z,0.77
2023-04-28T23:39:30.259Z,0.63
2023-04-28T23:41:32.539Z,0.63
2023-04-28T23:43:34.930Z,0.80
2023-04-28T23:45:37.178Z,0.68
2023-04-28T23:47:40.433Z,0.60
2023-04-28T23:49:42.852Z,0.77
2023-04-28T23:51:45.045Z,0.90
2023-04-28T23:53:47.999Z,0.90
2023-04-28T23:55:50.468Z,0.90
2023-04-28T23:57:52.749Z,1.00
2023-04-28T23:59:54.958Z,1.08
